createdAt,value
2023-03-02T00:01:12.717Z,39.92
2023-03-02T00:03:57.678Z,40.44
2023-03-02T00:06:42.616Z,39.89
2023-03-02T00:09:27.644Z,38.19
2023-03-02T00:12:12.416Z,39.47
2023-03-02T00:14:57.337Z,39.15
2023-03-02T00:17:42.215Z,39.98
2023-03-02T00:20:27.040Z,39.33
2023-03-02T00:23:12.057Z,40.00
2023-03-02T00:25:56.948Z,38.60
2023-03-02T00:28:41.742Z,39.16
2023-03-02T00:31:26.766Z,39.37
2023-03-02T00:34:11.639Z,38.71
2023-03-02T00:36:56.541Z,40.54
2023-03-02T00:39:41.489Z,41.25
2023-03-02T00:42:26.410Z,41.37
2023-03-02T00:45:11.298Z,41.46
2023-03-02T00:47:56.476Z,39.95
2023-03-02T00:50:41.399Z,41.10
2023-03-02T00:53:26.181Z,39.75
2023-03-02T00:56:11.073Z,39.62
2023-03-02T00:58:55.907Z,39.50
2023-03-02T01:01:40.903Z,39.46
2023-03-02T01:04:26.358Z,39.68
2023-03-02T01:07:11.285Z,39.97
2023-03-02T01:09:56.010Z,39.60
2023-03-02T01:12:40.936Z,40.37
2023-03-02T01:15:25.804Z,40.20
2023-03-02T01:18:12.114Z,40.58
2023-03-02T01:20:57.259Z,40.96
2023-03-02T01:23:42.001Z,41.03
2023-03-02T01:26:27.013Z,40.63
2023-03-02T01:29:11.941Z,40.49
2023-03-02T01:31:56.988Z,40.84
2023-03-02T01:34:42.100Z,40.63
2023-03-02T01:37:26.958Z,40.07
2023-03-02T01:40:11.923Z,40.76
2023-03-02T01:42:56.731Z,40.37
2023-03-02T01:45:41.610Z,40.79
2023-03-02T01:48:26.478Z,41.01
2023-03-02T01:51:11.386Z,40.36
2023-03-02T01:53:56.386Z,40.38
2023-03-02T01:56:41.324Z,40.45
2023-03-02T01:59:26.089Z,41.14
2023-03-02T02:02:11.093Z,41.37
2023-03-02T02:04:55.839Z,40.62
2023-03-02T02:07:40.715Z,42.56
2023-03-02T02:10:25.603Z,41.72
2023-03-02T02:13:10.663Z,41.30
2023-03-02T02:15:55.557Z,40.68
2023-03-02T02:18:40.390Z,39.61
2023-03-02T02:21:25.382Z,41.54
2023-03-02T02:24:10.186Z,40.42
2023-03-02T02:26:55.042Z,40.25
2023-03-02T02:29:39.863Z,40.06
2023-03-02T02:32:24.768Z,39.80
2023-03-02T02:35:09.628Z,41.74
2023-03-02T02:37:54.704Z,41.25
2023-03-02T02:40:39.488Z,40.06
2023-03-02T02:43:24.412Z,40.32
2023-03-02T02:46:09.512Z,41.26
2023-03-02T02:48:54.276Z,41.31
2023-03-02T02:51:39.174Z,40.47
2023-03-02T02:54:24.097Z,41.05
2023-03-02T02:57:08.981Z,40.05
2023-03-02T02:59:53.764Z,40.09
2023-03-02T03:02:38.799Z,40.90
2023-03-02T03:05:23.709Z,40.13
2023-03-02T03:08:08.484Z,42.34
2023-03-02T03:10:53.482Z,40.99
2023-03-02T03:13:38.413Z,41.28
2023-03-02T03:16:23.470Z,40.91
2023-03-02T03:19:08.718Z,40.58
2023-03-02T03:21:53.596Z,40.40
2023-03-02T03:24:38.533Z,41.81
2023-03-02T03:27:23.405Z,41.82
2023-03-02T03:30:08.206Z,42.48
2023-03-02T03:32:53.132Z,42.03
2023-03-02T03:35:37.972Z,42.21
2023-03-02T03:38:22.809Z,42.43
2023-03-02T03:41:07.681Z,43.18
2023-03-02T03:43:52.634Z,42.80
2023-03-02T03:46:37.626Z,44.23
2023-03-02T03:49:22.361Z,42.64
2023-03-02T03:52:07.217Z,43.48
2023-03-02T03:54:52.202Z,44.05
2023-03-02T03:57:36.901Z,43.23
2023-03-02T04:00:21.785Z,43.26
2023-03-02T04:03:06.756Z,43.86
2023-03-02T04:05:51.643Z,43.66
2023-03-02T04:08:36.597Z,42.30
2023-03-02T04:11:21.434Z,44.99
2023-03-02T04:14:06.186Z,43.65
2023-03-02T04:16:51.261Z,44.04
2023-03-02T04:19:36.115Z,44.61
2023-03-02T04:22:20.988Z,43.25
2023-03-02T04:25:05.963Z,42.56
2023-03-02T04:27:51.026Z,43.88
2023-03-02T04:30:35.950Z,43.33
2023-03-02T04:33:20.769Z,43.94
2023-03-02T04:36:05.786Z,44.11
2023-03-02T04:38:50.604Z,45.54
2023-03-02T04:41:35.339Z,43.90
2023-03-02T04:44:20.329Z,44.90
2023-03-02T04:47:05.161Z,43.79
2023-03-02T04:49:50.270Z,44.14
2023-03-02T04:52:35.083Z,44.34
2023-03-02T04:55:20.181Z,44.30
2023-03-02T04:58:04.993Z,44.62
2023-03-02T05:00:49.798Z,43.64
2023-03-02T05:03:34.509Z,44.31
2023-03-02T05:06:19.473Z,43.67
2023-03-02T05:09:04.312Z,44.24
2023-03-02T05:11:49.064Z,43.84
2023-03-02T05:14:34.029Z,43.07
2023-03-02T05:17:18.889Z,43.81
2023-03-02T05:20:03.855Z,44.84
2023-03-02T05:22:48.691Z,43.60
2023-03-02T05:25:33.678Z,42.41
2023-03-02T05:28:18.543Z,44.18
2023-03-02T05:31:03.374Z,44.43
2023-03-02T05:33:48.329Z,42.96
2023-03-02T05:36:33.511Z,42.84
2023-03-02T05:39:18.829Z,42.55
2023-03-02T05:42:03.771Z,42.54
2023-03-02T05:44:48.740Z,43.16
2023-03-02T05:47:33.739Z,42.90
2023-03-02T05:50:18.800Z,43.02
2023-03-02T05:53:03.708Z,41.83
2023-03-02T05:55:48.652Z,43.34
2023-03-02T05:58:33.510Z,43.52
2023-03-02T06:01:18.364Z,42.69
2023-03-02T06:04:03.394Z,42.97
2023-03-02T06:06:48.200Z,42.90
2023-03-02T06:09:33.131Z,42.17
2023-03-02T06:12:17.881Z,41.42
2023-03-02T06:15:02.717Z,41.92
2023-03-02T06:17:47.582Z,42.89
2023-03-02T06:20:32.529Z,44.99
2023-03-02T06:23:17.381Z,42.69
2023-03-02T06:26:02.253Z,42.95
2023-03-02T06:28:52.512Z,43.75
2023-03-02T06:31:38.297Z,42.27
2023-03-02T06:34:23.118Z,42.21
2023-03-02T06:37:08.043Z,42.36
2023-03-02T06:39:53.365Z,44.86
2023-03-02T06:42:38.245Z,42.17
2023-03-02T06:45:23.254Z,43.66
2023-03-02T06:48:08.124Z,42.27
2023-03-02T06:50:52.872Z,42.15
2023-03-02T06:53:37.779Z,42.24
2023-03-02T06:56:22.777Z,42.13
2023-03-02T06:59:07.589Z,41.53
2023-03-02T07:01:52.542Z,42.81
2023-03-02T07:04:37.345Z,42.20
2023-03-02T07:07:22.197Z,42.03
2023-03-02T07:10:06.972Z,41.48
2023-03-02T07:12:51.874Z,43.46
2023-03-02T07:15:36.708Z,42.47
2023-03-02T07:18:21.552Z,42.45
2023-03-02T07:21:06.441Z,43.85
2023-03-02T07:23:51.384Z,43.97
2023-03-02T07:26:36.306Z,43.26
2023-03-02T07:29:21.100Z,44.20
2023-03-02T07:32:06.249Z,42.92
2023-03-02T07:34:50.998Z,43.28
2023-03-02T07:37:36.080Z,43.82
2023-03-02T07:40:21.027Z,44.08
2023-03-02T07:43:06.019Z,44.70
2023-03-02T07:45:50.871Z,43.98
2023-03-02T07:48:35.763Z,43.05
2023-03-02T07:51:20.803Z,43.28
2023-03-02T07:54:05.569Z,43.49
2023-03-02T07:56:50.556Z,43.26
2023-03-02T07:59:35.469Z,44.18
2023-03-02T08:02:20.448Z,43.90
2023-03-02T08:05:05.206Z,44.98
2023-03-02T08:07:50.092Z,42.73
2023-03-02T08:10:34.977Z,44.52
2023-03-02T08:13:19.665Z,45.40
2023-03-02T08:16:04.636Z,43.81
2023-03-02T08:18:49.438Z,42.66
2023-03-02T08:21:34.745Z,44.00
2023-03-02T08:24:19.880Z,47.19
2023-03-02T08:27:04.816Z,43.85
2023-03-02T08:29:49.974Z,44.21
2023-03-02T08:32:34.981Z,44.18
2023-03-02T08:35:19.932Z,42.25
2023-03-02T08:38:04.862Z,44.13
2023-03-02T08:40:49.717Z,44.78
2023-03-02T08:43:34.568Z,44.98
2023-03-02T08:46:19.543Z,44.13
2023-03-02T08:49:04.226Z,45.05
2023-03-02T08:51:49.252Z,45.80
2023-03-02T08:54:34.047Z,44.67
2023-03-02T08:57:20.366Z,44.82
2023-03-02T09:00:06.330Z,47.08
2023-03-02T09:02:51.013Z,48.11
2023-03-02T09:05:36.005Z,48.18
2023-03-02T09:08:20.847Z,46.30
2023-03-02T09:11:05.853Z,44.89
2023-03-02T09:13:50.844Z,45.65
2023-03-02T09:16:35.752Z,45.48
2023-03-02T09:19:21.274Z,45.56
2023-03-02T09:22:06.170Z,46.68
2023-03-02T09:24:50.995Z,44.88
2023-03-02T09:27:35.820Z,43.99
2023-03-02T09:30:20.659Z,43.54
2023-03-02T09:33:05.678Z,44.90
2023-03-02T09:35:50.984Z,45.41
2023-03-02T09:38:35.900Z,43.72
2023-03-02T09:41:20.759Z,43.09
2023-03-02T09:44:05.687Z,44.66
2023-03-02T09:46:50.556Z,44.30
2023-03-02T09:49:35.550Z,43.91
2023-03-02T09:52:20.584Z,44.15
2023-03-02T09:55:05.430Z,43.72
2023-03-02T09:57:50.301Z,44.05
2023-03-02T10:00:35.193Z,43.26
2023-03-02T10:03:20.207Z,43.48
2023-03-02T10:06:05.001Z,42.69
2023-03-02T10:08:50.084Z,45.27
2023-03-02T10:11:34.906Z,43.48
2023-03-02T10:14:19.960Z,43.85
2023-03-02T10:17:04.898Z,43.80
2023-03-02T10:19:49.832Z,43.90
2023-03-02T10:22:34.704Z,42.31
2023-03-02T10:25:19.577Z,44.33
2023-03-02T10:28:04.535Z,43.60
2023-03-02T10:30:49.426Z,43.65
2023-03-02T10:33:34.308Z,43.12
2023-03-02T10:36:20.705Z,44.62
2023-03-02T10:39:05.637Z,43.23
2023-03-02T10:41:50.476Z,43.49
2023-03-02T10:44:35.360Z,43.33
2023-03-02T10:47:20.401Z,43.89
2023-03-02T10:50:05.583Z,43.87
2023-03-02T10:52:59.729Z,42.61
2023-03-02T10:55:45.612Z,42.94
2023-03-02T10:58:30.505Z,43.79
2023-03-02T11:01:15.638Z,42.62
2023-03-02T11:04:00.622Z,41.96
2023-03-02T11:06:45.431Z,41.71
2023-03-02T11:09:30.436Z,42.70
2023-03-02T11:12:15.360Z,42.40
2023-03-02T11:15:00.386Z,42.77
2023-03-02T11:17:45.251Z,42.34
2023-03-02T11:20:30.146Z,42.23
2023-03-02T11:23:14.967Z,43.70
2023-03-02T11:25:59.780Z,42.89
2023-03-02T11:28:44.742Z,41.68
2023-03-02T11:31:29.715Z,42.96
2023-03-02T11:34:17.883Z,41.50
2023-03-02T11:37:03.341Z,42.50
2023-03-02T11:39:54.921Z,42.00
2023-03-02T11:42:40.965Z,40.74
2023-03-02T11:45:25.860Z,42.09
2023-03-02T11:48:10.757Z,41.32
2023-03-02T11:50:55.764Z,41.34
2023-03-02T11:53:40.641Z,40.46
2023-03-02T11:56:25.384Z,42.11
2023-03-02T11:59:10.313Z,42.56
2023-03-02T12:01:55.394Z,40.26
2023-03-02T12:04:40.738Z,39.98
2023-03-02T12:07:25.657Z,40.53
2023-03-02T12:10:10.533Z,41.30
2023-03-02T12:12:55.414Z,40.93
2023-03-02T12:15:40.255Z,42.24
2023-03-02T12:18:25.183Z,41.35
2023-03-02T12:21:10.004Z,39.26
2023-03-02T12:23:54.843Z,40.64
2023-03-02T12:26:39.801Z,39.38
2023-03-02T12:29:24.715Z,40.31
2023-03-02T12:32:09.606Z,38.95
2023-03-02T12:34:55.052Z,41.06
2023-03-02T12:37:39.942Z,39.82
2023-03-02T12:40:24.900Z,40.87
2023-03-02T12:43:09.790Z,41.23
2023-03-02T12:45:54.584Z,40.21
2023-03-02T12:48:39.858Z,40.63
2023-03-02T12:51:24.919Z,40.18
2023-03-02T12:54:10.183Z,40.55
2023-03-02T12:56:55.021Z,41.21
2023-03-02T12:59:40.063Z,40.41
2023-03-02T13:02:25.039Z,41.87
2023-03-02T13:05:10.444Z,41.37
2023-03-02T13:07:55.774Z,41.94
2023-03-02T13:10:40.712Z,40.79
2023-03-02T13:13:26.067Z,40.79
2023-03-02T13:16:10.809Z,41.97
2023-03-02T13:18:55.641Z,40.39
2023-03-02T13:21:40.506Z,40.10
2023-03-02T13:24:25.391Z,39.86
2023-03-02T13:27:10.360Z,40.78
2023-03-02T13:29:55.206Z,38.54
2023-03-02T13:32:40.083Z,37.80
2023-03-02T13:35:26.464Z,39.74
2023-03-02T13:38:12.069Z,39.09
2023-03-02T13:40:56.901Z,39.72
2023-03-02T13:43:41.805Z,40.17
2023-03-02T13:46:26.616Z,38.83
2023-03-02T13:49:11.916Z,39.57
2023-03-02T13:51:56.813Z,37.89
2023-03-02T13:54:41.626Z,37.76
2023-03-02T13:57:26.606Z,38.22
2023-03-02T14:00:11.424Z,37.54
2023-03-02T14:02:56.216Z,38.39
2023-03-02T14:05:41.127Z,39.19
2023-03-02T14:08:26.112Z,36.67
2023-03-02T14:11:12.073Z,37.17
2023-03-02T14:13:57.249Z,38.21
2023-03-02T14:16:42.140Z,37.60
2023-03-02T14:19:26.895Z,37.89
2023-03-02T14:22:11.942Z,37.47
2023-03-02T14:24:56.814Z,36.62
2023-03-02T14:27:41.839Z,38.25
2023-03-02T14:30:26.687Z,37.01
2023-03-02T14:33:11.603Z,38.28
2023-03-02T14:35:56.440Z,37.45
2023-03-02T14:38:41.242Z,37.12
2023-03-02T14:41:26.017Z,37.80
2023-03-02T14:44:10.861Z,37.73
2023-03-02T14:46:55.724Z,38.47
2023-03-02T14:49:40.513Z,38.27
2023-03-02T14:52:25.506Z,39.11
2023-03-02T14:55:10.432Z,40.05
2023-03-02T14:57:55.236Z,39.44
2023-03-02T15:00:40.113Z,39.30
2023-03-02T15:03:25.103Z,39.37
2023-03-02T15:06:09.965Z,39.47
2023-03-02T15:08:54.989Z,39.57
2023-03-02T15:11:39.973Z,40.01
2023-03-02T15:14:24.852Z,40.40
2023-03-02T15:17:09.901Z,40.00
2023-03-02T15:19:54.652Z,40.88
2023-03-02T15:22:39.701Z,40.51
2023-03-02T15:25:24.436Z,40.65
2023-03-02T15:28:09.612Z,40.22
2023-03-02T15:30:54.909Z,39.14
2023-03-02T15:33:39.926Z,40.75
2023-03-02T15:36:24.911Z,39.73
2023-03-02T15:39:09.719Z,40.40
2023-03-02T15:41:54.641Z,41.42
2023-03-02T15:44:39.454Z,41.54
2023-03-02T15:47:24.410Z,39.03
2023-03-02T15:50:09.235Z,41.82
2023-03-02T15:52:54.282Z,39.96
2023-03-02T15:55:39.175Z,40.10
2023-03-02T15:58:24.030Z,40.92
2023-03-02T16:01:09.098Z,41.03
2023-03-02T16:03:53.844Z,41.15
2023-03-02T16:06:38.609Z,42.21
2023-03-02T16:09:23.319Z,43.47
2023-03-02T16:12:08.220Z,42.65
2023-03-02T16:14:53.136Z,43.00
2023-03-02T16:17:37.961Z,44.25
2023-03-02T16:20:22.870Z,44.33
2023-03-02T16:23:07.771Z,42.90
2023-03-02T16:25:52.644Z,43.20
2023-03-02T16:28:37.416Z,43.04
2023-03-02T16:31:22.429Z,43.05
2023-03-02T16:34:07.219Z,44.17
2023-03-02T16:36:52.196Z,45.00
2023-03-02T16:39:37.031Z,44.34
2023-03-02T16:42:21.974Z,43.72
2023-03-02T16:45:06.826Z,42.90
2023-03-02T16:47:51.597Z,42.72
2023-03-02T16:50:36.713Z,42.38
2023-03-02T16:53:21.629Z,41.83
2023-03-02T16:56:06.618Z,43.07
2023-03-02T16:58:51.530Z,44.79
2023-03-02T17:01:36.589Z,44.42
2023-03-02T17:04:21.783Z,44.11
2023-03-02T17:07:06.602Z,43.08
2023-03-02T17:09:51.384Z,45.27
2023-03-02T17:12:36.051Z,42.60
2023-03-02T17:15:21.050Z,44.56
2023-03-02T17:18:05.980Z,44.79
2023-03-02T17:20:50.900Z,46.28
2023-03-02T17:23:35.704Z,46.52
2023-03-02T17:26:20.563Z,45.63
2023-03-02T17:29:05.445Z,45.09
2023-03-02T17:31:50.511Z,46.15
2023-03-02T17:34:35.399Z,45.41
2023-03-02T17:37:20.295Z,44.03
2023-03-02T17:40:05.357Z,45.21
2023-03-02T17:42:50.926Z,45.53
2023-03-02T17:45:37.088Z,45.36
2023-03-02T17:48:21.804Z,46.75
2023-03-02T17:51:06.887Z,45.55
2023-03-02T17:53:51.792Z,46.42
2023-03-02T17:56:36.708Z,46.50
2023-03-02T17:59:21.745Z,45.15
2023-03-02T18:02:06.670Z,45.57
2023-03-02T18:04:51.485Z,45.82
2023-03-02T18:07:36.294Z,47.63
2023-03-02T18:10:21.095Z,45.76
2023-03-02T18:13:05.965Z,45.63
2023-03-02T18:15:50.955Z,47.25
2023-03-02T18:18:35.893Z,45.99
2023-03-02T18:21:21.033Z,46.79
2023-03-02T18:24:06.042Z,47.63
2023-03-02T18:26:50.985Z,49.04
2023-03-02T18:29:36.003Z,49.00
2023-03-02T18:32:20.980Z,49.77
2023-03-02T18:35:06.102Z,51.35
2023-03-02T18:37:50.978Z,51.85
2023-03-02T18:40:35.926Z,51.98
2023-03-02T18:43:20.738Z,49.96
2023-03-02T18:46:05.618Z,49.70
2023-03-02T18:48:50.649Z,50.41
2023-03-02T18:51:35.498Z,51.28
2023-03-02T18:54:20.495Z,52.01
2023-03-02T18:57:05.407Z,50.45
2023-03-02T18:59:50.372Z,49.40
2023-03-02T19:02:35.130Z,51.31
2023-03-02T19:05:20.178Z,49.18
2023-03-02T19:08:05.041Z,49.04
2023-03-02T19:10:49.798Z,49.68
2023-03-02T19:13:34.700Z,49.12
2023-03-02T19:16:19.701Z,50.51
2023-03-02T19:19:04.689Z,49.07
2023-03-02T19:21:49.622Z,46.53
2023-03-02T19:24:34.476Z,44.29
2023-03-02T19:27:19.269Z,46.55
2023-03-02T19:30:04.131Z,48.88
2023-03-02T19:32:48.968Z,49.02
2023-03-02T19:35:33.822Z,47.94
2023-03-02T19:38:18.839Z,48.99
2023-03-02T19:41:03.793Z,48.74
2023-03-02T19:43:48.722Z,48.58
2023-03-02T19:46:33.722Z,49.53
2023-03-02T19:49:19.149Z,49.77
2023-03-02T19:52:04.025Z,50.82
2023-03-02T19:54:49.322Z,50.23
2023-03-02T19:57:34.397Z,49.32
2023-03-02T20:00:19.264Z,46.89
2023-03-02T20:03:04.226Z,47.30
2023-03-02T20:05:49.115Z,47.67
2023-03-02T20:08:33.983Z,51.71
2023-03-02T20:11:19.281Z,57.82
2023-03-02T20:14:04.284Z,58.34
2023-03-02T20:16:49.311Z,55.07
2023-03-02T20:19:34.733Z,55.25
2023-03-02T20:22:19.724Z,52.04
2023-03-02T20:25:04.682Z,53.34
2023-03-02T20:27:49.790Z,52.09
2023-03-02T20:30:35.013Z,49.67
2023-03-02T20:33:20.076Z,51.59
2023-03-02T20:36:04.964Z,50.11
2023-03-02T20:38:49.972Z,52.07
2023-03-02T20:41:34.926Z,52.41
2023-03-02T20:44:19.747Z,50.67
2023-03-02T20:47:04.640Z,50.63
2023-03-02T20:49:49.548Z,51.08
2023-03-02T20:52:34.400Z,49.71
2023-03-02T20:55:19.208Z,49.04
2023-03-02T20:58:04.225Z,50.90
2023-03-02T21:00:49.172Z,49.45
2023-03-02T21:03:34.058Z,47.48
2023-03-02T21:06:18.950Z,49.02
2023-03-02T21:09:03.805Z,49.92
2023-03-02T21:11:48.826Z,51.34
2023-03-02T21:14:33.596Z,49.73
2023-03-02T21:17:18.545Z,48.76
2023-03-02T21:20:03.455Z,47.24
2023-03-02T21:22:48.511Z,48.43
2023-03-02T21:25:33.346Z,46.74
2023-03-02T21:28:18.191Z,48.46
2023-03-02T21:31:03.248Z,48.22
2023-03-02T21:33:48.502Z,49.81
2023-03-02T21:36:33.405Z,49.41
2023-03-02T21:39:18.213Z,49.28
2023-03-02T21:42:03.217Z,47.25
2023-03-02T21:44:47.991Z,48.70
2023-03-02T21:47:32.825Z,46.32
2023-03-02T21:50:17.555Z,48.84
2023-03-02T21:53:02.421Z,48.42
2023-03-02T21:55:47.315Z,49.51
2023-03-02T21:58:32.270Z,49.48
2023-03-02T22:01:17.423Z,47.50
2023-03-02T22:04:02.787Z,50.11
2023-03-02T22:06:47.642Z,51.31
2023-03-02T22:09:32.528Z,50.07
2023-03-02T22:12:17.413Z,50.17
2023-03-02T22:15:02.377Z,50.07
2023-03-02T22:17:47.205Z,50.03
2023-03-02T22:20:32.035Z,50.45
2023-03-02T22:23:16.845Z,50.91
2023-03-02T22:26:01.756Z,51.24
2023-03-02T22:28:46.538Z,52.31
2023-03-02T22:31:31.502Z,51.08
2023-03-02T22:34:17.623Z,51.41
2023-03-02T22:37:03.667Z,51.52
2023-03-02T22:39:48.474Z,51.10
2023-03-02T22:42:33.307Z,50.20
2023-03-02T22:45:18.200Z,51.32
2023-03-02T22:48:03.027Z,51.55
2023-03-02T22:50:47.995Z,51.48
2023-03-02T22:53:32.830Z,50.36
2023-03-02T22:56:18.672Z,49.90
2023-03-02T22:59:05.145Z,51.01
2023-03-02T23:01:49.960Z,52.13
2023-03-02T23:04:35.179Z,51.87
2023-03-02T23:07:20.486Z,52.27
2023-03-02T23:10:05.420Z,50.93
2023-03-02T23:12:50.320Z,50.95
2023-03-02T23:15:35.170Z,51.74
2023-03-02T23:18:20.112Z,51.25
2023-03-02T23:21:04.917Z,51.00
2023-03-02T23:23:49.891Z,51.66
2023-03-02T23:26:34.826Z,51.19
2023-03-02T23:29:19.746Z,50.92
2023-03-02T23:32:04.818Z,49.88
2023-03-02T23:34:50.088Z,53.31
2023-03-02T23:37:34.987Z,54.36
2023-03-02T23:40:19.897Z,58.49
2023-03-02T23:43:04.924Z,57.82
2023-03-02T23:45:49.951Z,58.25
2023-03-02T23:48:34.824Z,59.18
2023-03-02T23:51:19.638Z,61.60
2023-03-02T23:54:04.915Z,61.13
2023-03-02T23:56:50.036Z,63.60
2023-03-02T23:59:35.030Z,62.93
